createdAt,value
2022-09-22T00:01:18.722Z,96966.41
2022-09-22T00:03:48.521Z,96968.03
2022-09-22T00:06:18.401Z,96964.56
2022-09-22T00:08:48.273Z,96954.53
2022-09-22T00:11:20.198Z,96958.41
2022-09-22T00:13:50.861Z,96955.97
2022-09-22T00:16:20.438Z,96949.38
2022-09-22T00:18:48.313Z,96958.81
2022-09-22T00:21:18.551Z,96956.78
2022-09-22T00:23:47.709Z,96953.09
2022-09-22T00:26:18.736Z,96952.66
2022-09-22T00:28:48.005Z,96951.84
2022-09-22T00:31:18.377Z,96950.63
2022-09-22T00:33:46.589Z,96957.16
2022-09-22T00:36:15.338Z,96951.25
2022-09-22T00:38:43.812Z,96934.84
2022-09-22T00:41:19.407Z,96951.63
2022-09-22T00:43:49.267Z,96944.88
2022-09-22T00:46:21.693Z,96941.81
2022-09-22T00:48:54.343Z,96942.81
2022-09-22T00:51:26.422Z,96936.28
2022-09-22T00:53:55.375Z,96940.34
2022-09-22T00:56:29.155Z,96919.88
2022-09-22T00:59:02.782Z,96936.25
2022-09-22T01:01:30.785Z,96935.66
2022-09-22T01:03:58.882Z,96931.31
2022-09-22T01:06:29.622Z,96926.00
2022-09-22T01:08:58.312Z,96922.53
2022-09-22T01:11:29.677Z,96914.56
2022-09-22T01:14:05.402Z,96919.47
2022-09-22T01:16:46.786Z,96916.19
2022-09-22T01:19:50.896Z,96919.03
2022-09-22T01:22:37.210Z,96917.22
2022-09-22T01:25:31.793Z,96918.25
2022-09-22T01:28:40.675Z,96919.03
2022-09-22T01:31:18.005Z,96916.78
2022-09-22T01:33:52.051Z,96918.25
2022-09-22T01:36:28.791Z,96911.88
2022-09-22T01:39:06.125Z,96917.38
2022-09-22T01:41:46.605Z,96911.44
2022-09-22T01:44:18.470Z,96906.56
2022-09-22T01:46:55.156Z,96902.06
2022-09-22T01:49:25.107Z,96901.41
2022-09-22T01:51:57.134Z,96896.91
2022-09-22T01:54:31.954Z,96898.75
2022-09-22T01:57:06.653Z,96892.78
2022-09-22T01:59:39.614Z,96906.72
2022-09-22T02:02:16.563Z,96897.09
2022-09-22T02:04:50.928Z,96876.41
2022-09-22T02:07:25.372Z,96894.00
2022-09-22T02:09:53.840Z,96895.22
2022-09-22T02:12:21.636Z,96898.66
2022-09-22T02:14:50.441Z,96899.53
2022-09-22T02:17:19.691Z,96894.00
2022-09-22T02:19:47.500Z,96897.66
2022-09-22T02:22:15.489Z,96899.31
2022-09-22T02:24:44.849Z,96901.75
2022-09-22T02:27:16.297Z,96902.19
2022-09-22T02:29:47.586Z,96894.38
2022-09-22T02:32:17.993Z,96895.22
2022-09-22T02:34:48.258Z,96889.63
2022-09-22T02:37:23.872Z,96888.59
2022-09-22T02:40:05.300Z,96887.81
2022-09-22T02:42:40.123Z,96884.97
2022-09-22T02:45:13.918Z,96893.34
2022-09-22T02:47:46.459Z,96888.19
2022-09-22T02:50:19.014Z,96880.41
2022-09-22T02:52:46.650Z,96885.34
2022-09-22T02:55:14.841Z,96887.78
2022-09-22T02:57:43.687Z,96891.69
2022-09-22T03:00:12.597Z,96889.41
2022-09-22T03:02:40.246Z,96885.31
2022-09-22T03:05:08.524Z,96897.34
2022-09-22T03:07:37.572Z,96896.78
2022-09-22T03:10:06.211Z,96899.81
2022-09-22T03:12:33.888Z,96890.81
2022-09-22T03:15:01.514Z,96887.94
2022-09-22T03:17:29.212Z,96893.81
2022-09-22T03:19:56.889Z,96887.69
2022-09-22T03:22:24.583Z,96901.53
2022-09-22T03:24:53.616Z,96910.13
2022-09-22T03:27:21.262Z,96905.41
2022-09-22T03:29:48.941Z,96902.75
2022-09-22T03:32:16.611Z,96901.72
2022-09-22T03:34:44.306Z,96899.91
2022-09-22T03:37:11.967Z,96904.38
2022-09-22T03:39:39.629Z,96905.66
2022-09-22T03:42:08.903Z,96912.78
2022-09-22T03:44:36.807Z,96913.53
2022-09-22T03:47:04.676Z,96913.44
2022-09-22T03:49:32.527Z,96920.31
2022-09-22T03:52:00.208Z,96919.06
2022-09-22T03:54:27.967Z,96918.28
2022-09-22T03:56:55.859Z,96916.63
2022-09-22T03:59:24.869Z,96927.41
2022-09-22T04:01:56.109Z,96928.38
2022-09-22T04:04:25.788Z,96930.41
2022-09-22T04:06:53.462Z,96923.47
2022-09-22T04:09:21.233Z,96921.47
2022-09-22T04:11:48.872Z,96917.75
2022-09-22T04:14:16.545Z,96917.09
2022-09-22T04:16:46.098Z,96914.38
2022-09-22T04:19:14.375Z,96916.28
2022-09-22T04:21:43.090Z,96915.63
2022-09-22T04:24:11.492Z,96919.94
2022-09-22T04:26:44.445Z,96925.41
2022-09-22T04:29:24.206Z,96926.66
2022-09-22T04:31:53.238Z,96915.44
2022-09-22T04:34:20.884Z,96919.75
2022-09-22T04:36:48.549Z,96923.06
2022-09-22T04:39:19.217Z,96923.41
2022-09-22T04:41:49.502Z,96925.41
2022-09-22T04:44:17.135Z,96924.56
2022-09-22T04:46:46.124Z,96925.00
2022-09-22T04:49:15.285Z,96920.94
2022-09-22T04:51:42.954Z,96922.22
2022-09-22T04:54:10.772Z,96927.66
2022-09-22T04:56:38.441Z,96923.13
2022-09-22T04:59:06.113Z,96931.84
2022-09-22T05:01:34.073Z,96929.38
2022-09-22T05:04:02.037Z,96940.41
2022-09-22T05:06:31.138Z,96932.63
2022-09-22T05:08:58.923Z,96941.44
2022-09-22T05:11:26.618Z,96933.91
2022-09-22T05:13:55.554Z,96938.03
2022-09-22T05:16:23.329Z,96939.03
2022-09-22T05:18:51.178Z,96942.09
2022-09-22T05:21:18.953Z,96938.44
2022-09-22T05:23:48.247Z,96942.34
2022-09-22T05:26:15.885Z,96949.47
2022-09-22T05:28:43.578Z,96949.09
2022-09-22T05:31:11.270Z,96952.38
2022-09-22T05:33:38.929Z,96951.22
2022-09-22T05:36:07.007Z,96950.69
2022-09-22T05:38:34.694Z,96951.19
2022-09-22T05:41:03.932Z,96955.34
2022-09-22T05:43:31.744Z,96950.41
2022-09-22T05:45:59.541Z,96953.84
2022-09-22T05:48:30.995Z,96953.47
2022-09-22T05:50:59.293Z,96948.38
2022-09-22T05:53:27.551Z,96946.56
2022-09-22T05:55:56.897Z,96944.38
2022-09-22T05:58:25.965Z,96947.50
2022-09-22T06:00:56.909Z,96949.59
2022-09-22T06:03:24.992Z,96952.13
2022-09-22T06:05:52.815Z,96952.16
2022-09-22T06:08:20.486Z,96954.28
2022-09-22T06:10:49.200Z,96950.22
2022-09-22T06:13:16.899Z,96952.66
2022-09-22T06:15:48.590Z,96956.78
2022-09-22T06:18:23.507Z,96950.19
2022-09-22T06:20:52.569Z,96946.06
2022-09-22T06:23:20.252Z,96951.78
2022-09-22T06:25:47.895Z,96947.03
2022-09-22T06:28:16.207Z,96948.09
2022-09-22T06:30:44.064Z,96952.09
2022-09-22T06:33:13.122Z,96945.50
2022-09-22T06:35:43.124Z,96945.63
2022-09-22T06:38:14.765Z,96947.03
2022-09-22T06:40:43.169Z,96951.59
2022-09-22T06:43:22.567Z,96949.72
2022-09-22T06:45:52.147Z,96951.75
2022-09-22T06:48:23.713Z,96950.81
2022-09-22T06:50:54.280Z,96951.03
2022-09-22T06:53:25.750Z,96945.03
2022-09-22T06:55:54.460Z,96944.75
2022-09-22T06:58:22.869Z,96938.50
2022-09-22T07:00:51.035Z,96938.88
2022-09-22T07:03:22.589Z,96937.63
2022-09-22T07:05:54.821Z,96937.47
2022-09-22T07:08:23.073Z,96946.16
2022-09-22T07:10:55.262Z,96936.53
2022-09-22T07:13:22.839Z,96938.88
2022-09-22T07:15:51.135Z,96938.09
2022-09-22T07:18:18.913Z,96939.31
2022-09-22T07:20:48.161Z,96937.28
2022-09-22T07:23:19.012Z,96932.13
2022-09-22T07:25:57.119Z,96931.38
2022-09-22T07:28:25.883Z,96936.63
2022-09-22T07:30:53.519Z,96933.41
2022-09-22T07:33:21.454Z,96939.91
2022-09-22T07:35:50.586Z,96942.44
2022-09-22T07:38:18.767Z,96939.50
2022-09-22T07:40:53.512Z,96936.47
2022-09-22T07:43:21.162Z,96942.69
2022-09-22T07:45:55.605Z,96942.63
2022-09-22T07:48:38.146Z,96940.88
2022-09-22T07:51:15.692Z,96941.50
2022-09-22T07:53:45.715Z,96937.94
2022-09-22T07:56:15.107Z,96930.78
2022-09-22T07:58:47.986Z,96934.88
2022-09-22T08:01:15.989Z,96930.50
2022-09-22T08:03:44.090Z,96932.38
2022-09-22T08:06:13.271Z,96940.16
2022-09-22T08:08:42.189Z,96933.81
2022-09-22T08:11:13.595Z,96930.06
2022-09-22T08:13:41.811Z,96931.19
2022-09-22T08:16:10.335Z,96932.72
2022-09-22T08:18:39.664Z,96936.63
2022-09-22T08:21:08.307Z,96941.53
2022-09-22T08:23:38.058Z,96931.53
2022-09-22T08:26:07.200Z,96928.78
2022-09-22T08:28:36.065Z,96920.63
2022-09-22T08:31:04.728Z,96924.22
2022-09-22T08:33:32.792Z,96918.88
2022-09-22T08:36:03.251Z,96913.16
2022-09-22T08:38:32.444Z,96915.31
2022-09-22T08:41:15.232Z,96920.34
2022-09-22T08:43:49.051Z,96907.16
2022-09-22T08:46:17.203Z,96921.88
2022-09-22T08:49:05.839Z,96920.84
2022-09-22T08:51:54.987Z,96924.78
2022-09-22T08:54:27.479Z,96914.72
2022-09-22T08:57:10.711Z,96912.06
2022-09-22T08:59:46.441Z,96913.09
2022-09-22T09:02:34.447Z,96921.28
2022-09-22T09:05:39.484Z,96916.91
2022-09-22T09:08:21.686Z,96917.34
2022-09-22T09:10:54.271Z,96920.88
2022-09-22T09:13:40.522Z,96923.47
2022-09-22T09:16:21.258Z,96916.09
2022-09-22T09:18:56.685Z,96925.81
2022-09-22T09:21:26.805Z,96927.47
2022-09-22T09:26:52.225Z,96908.28
2022-09-22T09:29:28.008Z,96910.97
2022-09-22T09:32:00.150Z,96917.97
2022-09-22T09:34:29.881Z,96914.16
2022-09-22T09:37:07.631Z,96905.59
2022-09-22T09:39:37.660Z,96907.16
2022-09-22T09:42:18.381Z,96910.41
2022-09-22T09:44:53.543Z,96913.91
2022-09-22T09:47:43.048Z,96906.13
2022-09-22T09:50:12.353Z,96910.69
2022-09-22T09:52:40.352Z,96906.41
2022-09-22T09:55:20.052Z,96901.28
2022-09-22T09:58:03.198Z,96903.88
2022-09-22T10:00:31.875Z,96901.19
2022-09-22T10:03:07.221Z,96901.88
2022-09-22T10:05:37.581Z,96898.44
2022-09-22T10:08:16.480Z,96893.47
2022-09-22T10:10:44.549Z,96878.41
2022-09-22T10:13:32.979Z,96882.75
2022-09-22T10:16:21.897Z,96887.22
2022-09-22T10:19:02.887Z,96866.03
2022-09-22T10:21:30.974Z,96878.47
2022-09-22T10:24:00.195Z,96853.88
2022-09-22T10:26:30.280Z,96867.13
2022-09-22T10:29:14.197Z,96873.03
2022-09-22T10:32:00.515Z,96873.63
2022-09-22T10:34:31.657Z,96860.19
2022-09-22T10:37:00.786Z,96867.84
2022-09-22T10:39:37.452Z,96862.22
2022-09-22T10:42:13.218Z,96859.03
2022-09-22T10:44:42.967Z,96862.53
2022-09-22T10:47:29.675Z,96855.78
2022-09-22T10:50:21.612Z,96851.19
2022-09-22T10:52:55.971Z,96856.78
2022-09-22T10:55:30.201Z,96856.31
2022-09-22T10:58:31.325Z,96856.81
2022-09-22T11:01:11.477Z,96857.81
2022-09-22T11:04:07.567Z,96854.34
2022-09-22T11:07:06.423Z,96853.53
2022-09-22T11:09:59.926Z,96855.28
2022-09-22T11:12:38.785Z,96841.78
2022-09-22T11:15:24.217Z,96851.25
2022-09-22T11:18:31.471Z,96843.13
2022-09-22T11:21:12.300Z,96841.81
2022-09-22T11:26:41.010Z,96837.97
2022-09-22T11:29:37.370Z,96839.75
2022-09-22T11:32:16.048Z,96839.06
2022-09-22T11:35:18.848Z,96842.88
2022-09-22T11:38:01.722Z,96831.84
2022-09-22T11:43:38.281Z,96841.97
2022-09-22T11:46:13.994Z,96825.16
2022-09-22T11:48:53.801Z,96829.28
2022-09-22T11:51:46.700Z,96821.84
2022-09-22T11:54:41.023Z,96815.28
2022-09-22T11:57:13.455Z,96814.97
2022-09-22T11:59:44.760Z,96818.25
2022-09-22T12:02:18.290Z,96819.31
2022-09-22T12:04:52.150Z,96811.59
2022-09-22T12:07:28.899Z,96812.38
2022-09-22T12:10:01.908Z,96804.94
2022-09-22T12:12:32.483Z,96797.91
2022-09-22T12:15:07.903Z,96786.31
2022-09-22T12:17:44.702Z,96797.81
2022-09-22T12:20:29.518Z,96796.09
2022-09-22T12:23:15.556Z,96789.22
2022-09-22T12:25:49.015Z,96782.88
2022-09-22T12:28:22.915Z,96789.31
2022-09-22T12:31:12.772Z,96783.34
2022-09-22T12:33:47.674Z,96777.69
2022-09-22T12:36:17.111Z,96773.06
2022-09-22T12:38:45.515Z,96780.47
2022-09-22T12:41:19.535Z,96773.81
2022-09-22T12:43:48.546Z,96766.25
2022-09-22T12:46:25.481Z,96776.47
2022-09-22T12:48:53.342Z,96766.31
2022-09-22T12:51:33.196Z,96773.94
2022-09-22T12:54:46.875Z,96769.91
2022-09-22T12:57:47.348Z,96762.59
2022-09-22T13:00:32.283Z,96756.38
2022-09-22T13:03:02.086Z,96756.03
2022-09-22T13:05:45.564Z,96752.88
2022-09-22T13:08:20.291Z,96739.84
2022-09-22T13:10:57.330Z,96758.50
2022-09-22T13:13:38.881Z,96755.34
2022-09-22T13:16:34.315Z,96754.13
2022-09-22T13:19:02.360Z,96754.44
2022-09-22T13:21:33.029Z,96752.41
2022-09-22T13:24:02.979Z,96750.28
2022-09-22T13:26:33.664Z,96743.81
2022-09-22T13:29:06.788Z,96743.75
2022-09-22T13:31:39.430Z,96743.75
2022-09-22T13:34:29.118Z,96747.94
2022-09-22T13:37:00.717Z,96736.00
2022-09-22T13:39:31.884Z,96737.69
2022-09-22T13:42:06.068Z,96730.94
2022-09-22T13:44:38.828Z,96735.06
2022-09-22T13:47:13.632Z,96727.13
2022-09-22T13:49:43.978Z,96727.16
2022-09-22T13:52:17.685Z,96725.72
2022-09-22T13:54:48.701Z,96717.88
2022-09-22T13:57:21.566Z,96717.09
2022-09-22T13:59:52.499Z,96712.28
2022-09-22T14:02:28.181Z,96715.50
2022-09-22T14:05:01.554Z,96706.09
2022-09-22T14:07:30.679Z,96711.78
2022-09-22T14:10:00.336Z,96696.94
2022-09-22T14:12:29.372Z,96707.75
2022-09-22T14:15:33.381Z,96707.50
2022-09-22T14:18:02.099Z,96699.38
2022-09-22T14:20:29.974Z,96697.19
2022-09-22T14:22:57.752Z,96698.22
2022-09-22T14:25:27.030Z,96700.94
2022-09-22T14:27:59.752Z,96696.09
2022-09-22T14:30:31.037Z,96698.25
2022-09-22T14:33:02.721Z,96694.22
2022-09-22T14:35:32.764Z,96694.50
2022-09-22T14:38:12.357Z,96692.31
2022-09-22T14:40:52.601Z,96693.94
2022-09-22T14:43:27.537Z,96692.06
2022-09-22T14:46:03.901Z,96680.34
2022-09-22T14:48:36.409Z,96674.38
2022-09-22T14:51:08.245Z,96694.53
2022-09-22T14:53:41.874Z,96691.44
2022-09-22T14:56:13.893Z,96688.47
2022-09-22T14:58:42.477Z,96684.19
2022-09-22T15:01:39.667Z,96689.25
2022-09-22T15:04:15.142Z,96693.09
2022-09-22T15:06:43.215Z,96688.88
2022-09-22T15:09:24.953Z,96691.44
2022-09-22T15:11:55.493Z,96690.75
2022-09-22T15:14:41.315Z,96683.06
2022-09-22T15:17:56.228Z,96683.34
2022-09-22T15:20:26.465Z,96681.91
2022-09-22T15:22:55.437Z,96672.16
2022-09-22T15:25:24.003Z,96684.91
2022-09-22T15:27:53.358Z,96686.91
2022-09-22T15:30:22.913Z,96689.84
2022-09-22T15:32:51.963Z,96695.53
2022-09-22T15:35:20.331Z,96689.66
2022-09-22T15:37:50.619Z,96692.97
2022-09-22T15:40:21.136Z,96690.22
2022-09-22T15:43:11.241Z,96688.19
2022-09-22T15:45:39.169Z,96686.31
2022-09-22T15:48:10.148Z,96686.34
2022-09-22T15:50:37.879Z,96686.91
2022-09-22T15:53:05.578Z,96682.84
2022-09-22T15:55:34.376Z,96682.59
2022-09-22T15:58:09.587Z,96683.94
2022-09-22T16:00:38.049Z,96683.06
2022-09-22T16:03:15.461Z,96687.69
2022-09-22T16:05:44.866Z,96684.47
2022-09-22T16:08:16.731Z,96677.47
2022-09-22T16:10:45.939Z,96677.41
2022-09-22T16:13:14.055Z,96678.19
2022-09-22T16:15:41.735Z,96681.25
2022-09-22T16:18:10.788Z,96684.00
2022-09-22T16:20:38.521Z,96679.91
2022-09-22T16:23:07.391Z,96674.41
2022-09-22T16:25:35.087Z,96681.59
2022-09-22T16:28:03.385Z,96683.50
2022-09-22T16:30:31.047Z,96672.69
2022-09-22T16:32:58.738Z,96675.75
2022-09-22T16:35:27.851Z,96683.78
2022-09-22T16:37:55.738Z,96682.91
2022-09-22T16:40:24.737Z,96679.31
2022-09-22T16:42:52.832Z,96681.25
2022-09-22T16:45:41.040Z,96682.97
2022-09-22T16:48:08.762Z,96680.13
2022-09-22T16:50:37.994Z,96681.03
2022-09-22T16:53:08.112Z,96679.19
2022-09-22T16:55:37.548Z,96677.97
2022-09-22T16:58:08.205Z,96674.31
2022-09-22T17:00:36.578Z,96677.84
2022-09-22T17:03:04.255Z,96677.25
2022-09-22T17:05:34.242Z,96672.59
2022-09-22T17:08:06.586Z,96676.06
2022-09-22T17:10:35.731Z,96675.03
2022-09-22T17:13:04.884Z,96677.69
2022-09-22T17:15:35.673Z,96679.53
2022-09-22T17:18:04.482Z,96659.88
2022-09-22T17:20:32.284Z,96682.28
2022-09-22T17:22:59.970Z,96683.34
2022-09-22T17:25:29.097Z,96688.75
2022-09-22T17:27:57.696Z,96695.66
2022-09-22T17:30:26.258Z,96694.09
2022-09-22T17:32:54.170Z,96694.25
2022-09-22T17:35:21.861Z,96691.06
2022-09-22T17:37:51.811Z,96690.84
2022-09-22T17:40:19.681Z,96695.53
2022-09-22T17:42:48.920Z,96694.06
2022-09-22T17:45:16.824Z,96692.34
2022-09-22T17:48:02.160Z,96697.94
2022-09-22T17:50:47.511Z,96702.41
2022-09-22T17:53:32.755Z,96691.94
2022-09-22T17:56:05.054Z,96703.84
2022-09-22T17:58:34.268Z,96703.94
2022-09-22T18:01:01.959Z,96703.38
2022-09-22T18:03:29.641Z,96708.53
2022-09-22T18:05:57.407Z,96704.69
2022-09-22T18:08:25.205Z,96709.81
2022-09-22T18:10:53.084Z,96710.16
2022-09-22T18:13:20.951Z,96708.31
2022-09-22T18:15:53.011Z,96709.28
2022-09-22T18:18:20.727Z,96703.91
2022-09-22T18:20:48.411Z,96708.22
2022-09-22T18:23:16.670Z,96709.88
2022-09-22T18:25:44.378Z,96707.66
2022-09-22T18:28:12.051Z,96702.41
2022-09-22T18:30:40.297Z,96709.06
2022-09-22T18:33:09.577Z,96710.91
2022-09-22T18:35:37.285Z,96708.94
2022-09-22T18:38:04.970Z,96703.69
2022-09-22T18:40:32.726Z,96715.25
2022-09-22T18:43:00.441Z,96713.41
2022-09-22T18:45:28.690Z,96709.56
2022-09-22T18:47:59.055Z,96713.50
2022-09-22T18:50:35.591Z,96721.56
2022-09-22T18:53:03.329Z,96716.56
2022-09-22T18:55:32.391Z,96719.13
2022-09-22T18:58:00.116Z,96723.75
2022-09-22T19:00:27.843Z,96727.28
2022-09-22T19:02:55.532Z,96727.81
2022-09-22T19:05:23.285Z,96725.59
2022-09-22T19:07:53.480Z,96721.88
2022-09-22T19:10:22.399Z,96721.19
2022-09-22T19:12:50.735Z,96732.47
2022-09-22T19:15:19.618Z,96731.06
2022-09-22T19:17:49.442Z,96733.16
2022-09-22T19:20:22.829Z,96726.97
2022-09-22T19:22:52.176Z,96730.91
2022-09-22T19:25:21.627Z,96732.09
2022-09-22T19:27:50.107Z,96730.34
2022-09-22T19:30:22.502Z,96722.66
2022-09-22T19:32:52.041Z,96723.94
2022-09-22T19:35:19.943Z,96728.13
2022-09-22T19:37:47.630Z,96721.69
2022-09-22T19:40:18.777Z,96726.59
2022-09-22T19:42:47.144Z,96721.59
2022-09-22T19:45:14.880Z,96722.41
2022-09-22T19:47:42.612Z,96720.19
2022-09-22T19:50:10.338Z,96718.69
2022-09-22T19:52:38.691Z,96720.41
2022-09-22T19:55:07.472Z,96714.44
2022-09-22T19:57:37.276Z,96705.94
2022-09-22T20:00:05.827Z,96722.69
2022-09-22T20:02:34.127Z,96723.63
2022-09-22T20:05:01.871Z,96709.97
2022-09-22T20:07:29.525Z,96708.22
2022-09-22T20:09:57.246Z,96713.34
2022-09-22T20:12:24.972Z,96709.84
2022-09-22T20:14:54.562Z,96710.09
2022-09-22T20:17:23.109Z,96710.31
2022-09-22T20:19:50.816Z,96715.94
2022-09-22T20:22:22.786Z,96714.53
2022-09-22T20:24:54.030Z,96717.84
2022-09-22T20:27:26.001Z,96694.75
2022-09-22T20:29:57.554Z,96719.38
2022-09-22T20:32:26.663Z,96707.22
2022-09-22T20:34:55.306Z,96712.00
2022-09-22T20:37:23.400Z,96712.97
2022-09-22T20:39:51.167Z,96716.22
2022-09-22T20:42:18.816Z,96717.63
2022-09-22T20:44:46.963Z,96710.47
2022-09-22T20:47:17.573Z,96709.75
2022-09-22T20:49:51.326Z,96714.31
2022-09-22T20:52:20.850Z,96709.47
2022-09-22T20:54:49.362Z,96713.19
2022-09-22T20:57:17.568Z,96705.34
2022-09-22T20:59:45.634Z,96708.00
2022-09-22T21:02:15.059Z,96706.13
2022-09-22T21:04:44.932Z,96706.75
2022-09-22T21:07:12.646Z,96705.63
2022-09-22T21:09:57.793Z,96702.69
2022-09-22T21:12:30.704Z,96696.13
2022-09-22T21:14:59.342Z,96700.38
2022-09-22T21:17:29.675Z,96708.09
2022-09-22T21:19:58.792Z,96702.22
2022-09-22T21:22:27.980Z,96704.00
2022-09-22T21:24:56.310Z,96703.34
2022-09-22T21:27:24.714Z,96700.81
2022-09-22T21:29:53.069Z,96706.25
2022-09-22T21:32:20.889Z,96703.38
2022-09-22T21:34:48.667Z,96701.03
2022-09-22T21:37:18.081Z,96700.72
2022-09-22T21:39:46.498Z,96698.47
2022-09-22T21:42:14.223Z,96697.31
2022-09-22T21:44:42.025Z,96704.06
2022-09-22T21:47:10.553Z,96704.91
2022-09-22T21:49:38.446Z,96699.81
2022-09-22T21:52:06.387Z,96704.69
2022-09-22T21:54:35.746Z,96710.50
2022-09-22T21:57:03.400Z,96711.38
2022-09-22T21:59:31.298Z,96712.41
2022-09-22T22:01:59.006Z,96691.66
2022-09-22T22:04:26.928Z,96693.13
2022-09-22T22:06:54.988Z,96702.97
2022-09-22T22:09:25.251Z,96703.47
2022-09-22T22:11:56.474Z,96704.75
2022-09-22T22:14:27.161Z,96702.16
2022-09-22T22:16:56.243Z,96699.91
2022-09-22T22:19:26.813Z,96704.66
2022-09-22T22:21:55.614Z,96696.66
2022-09-22T22:24:29.276Z,96700.22
2022-09-22T22:27:01.204Z,96683.00
2022-09-22T22:29:31.708Z,96695.63
2022-09-22T22:31:59.697Z,96698.72
2022-09-22T22:34:27.424Z,96697.66
2022-09-22T22:36:56.214Z,96701.66
2022-09-22T22:39:24.066Z,96701.28
2022-09-22T22:41:54.447Z,96694.75
2022-09-22T22:44:23.757Z,96683.38
2022-09-22T22:46:51.682Z,96694.38
2022-09-22T22:49:20.881Z,96702.59
2022-09-22T22:51:49.337Z,96700.56
2022-09-22T22:54:17.101Z,96692.41
2022-09-22T22:56:48.900Z,96697.28
2022-09-22T22:59:18.654Z,96700.13
2022-09-22T23:01:47.765Z,96696.09
2022-09-22T23:04:16.575Z,96686.38
2022-09-22T23:06:44.823Z,96682.34
2022-09-22T23:09:15.442Z,96684.16
2022-09-22T23:11:45.571Z,96675.19
2022-09-22T23:14:15.581Z,96680.38
2022-09-22T23:16:45.100Z,96673.25
2022-09-22T23:19:16.802Z,96674.88
2022-09-22T23:21:45.802Z,96674.03
2022-09-22T23:24:16.309Z,96658.50
2022-09-22T23:26:44.989Z,96671.78
2022-09-22T23:29:12.747Z,96670.06
2022-09-22T23:31:40.395Z,96668.28
2022-09-22T23:34:08.064Z,96667.91
2022-09-22T23:36:37.299Z,96668.78
2022-09-22T23:39:05.422Z,96674.97
2022-09-22T23:41:34.851Z,96674.81
2022-09-22T23:44:03.492Z,96674.63
2022-09-22T23:46:31.752Z,96675.22
2022-09-22T23:49:00.250Z,96676.63
2022-09-22T23:51:28.400Z,96650.53
2022-09-22T23:53:57.928Z,96671.41
2022-09-22T23:56:26.014Z,96678.41
2022-09-22T23:58:53.927Z,96681.25
